sensor_id;sensor_type;location;lat;lon;timestamp;P1;durP1;ratioP1;P2;durP2;ratioP2
7511;SDS011;9999;48.780;9.146;2023-03-03T00:00:35;19.73;;;11.20;;
7511;SDS011;9999;48.780;9.146;2023-03-03T00:03:04;17.73;;;10.10;;
7511;SDS011;9999;48.780;9.146;2023-03-03T00:05:33;21.70;;;9.73;;
7511;SDS011;9999;48.780;9.146;2023-03-03T00:08:00;24.70;;;11.43;;
7511;SDS011;9999;48.780;9.146;2023-03-03T00:10:27;25.60;;;11.17;;
7511;SDS011;9999;48.780;9.146;2023-03-03T00:12:54;17.73;;;10.13;;
7511;SDS011;9999;48.780;9.146;2023-03-03T00:15:22;18.90;;;10.17;;
7511;SDS011;9999;48.780;9.146;2023-03-03T00:17:50;22.73;;;11.00;;
7511;SDS011;9999;48.780;9.146;2023-03-03T00:20:28;23.30;;;11.33;;
7511;SDS011;9999;48.780;9.146;2023-03-03T00:23:00;20.57;;;9.67;;
7511;SDS011;9999;48.780;9.146;2023-03-03T00:25:39;19.73;;;10.40;;
7511;SDS011;9999;48.780;9.146;2023-03-03T00:28:14;18.87;;;10.60;;
7511;SDS011;9999;48.780;9.146;2023-03-03T00:30:47;21.43;;;10.37;;
7511;SDS011;9999;48.780;9.146;2023-03-03T00:33:18;17.57;;;10.20;;
7511;SDS011;9999;48.780;9.146;2023-03-03T00:35:54;27.37;;;12.43;;
7511;SDS011;9999;48.780;9.146;2023-03-03T00:38:21;16.90;;;8.97;;
7511;SDS011;9999;48.780;9.146;2023-03-03T00:40:48;29.80;;;11.93;;
7511;SDS011;9999;48.780;9.146;2023-03-03T00:43:19;18.90;;;10.30;;
7511;SDS011;9999;48.780;9.146;2023-03-03T00:45:48;26.43;;;11.73;;
7511;SDS011;9999;48.780;9.146;2023-03-03T00:48:20;16.03;;;9.10;;
7511;SDS011;9999;48.780;9.146;2023-03-03T00:50:49;22.43;;;10.60;;
7511;SDS011;9999;48.780;9.146;2023-03-03T00:53:19;25.43;;;11.13;;
7511;SDS011;9999;48.780;9.146;2023-03-03T00:55:48;21.03;;;10.57;;
7511;SDS011;9999;48.780;9.146;2023-03-03T00:58:16;21.20;;;10.50;;
7511;SDS011;9999;48.780;9.146;2023-03-03T01:00:46;25.93;;;10.73;;
7511;SDS011;9999;48.780;9.146;2023-03-03T01:03:17;16.90;;;10.50;;
7511;SDS011;9999;48.780;9.146;2023-03-03T01:05:46;21.77;;;10.33;;
7511;SDS011;9999;48.780;9.146;2023-03-03T01:08:13;21.33;;;11.30;;
7511;SDS011;9999;48.780;9.146;2023-03-03T01:10:42;21.63;;;10.87;;
7511;SDS011;9999;48.780;9.146;2023-03-03T01:13:15;21.00;;;11.17;;
7511;SDS011;9999;48.780;9.146;2023-03-03T01:15:43;21.03;;;11.20;;
7511;SDS011;9999;48.780;9.146;2023-03-03T01:18:11;18.93;;;9.93;;
7511;SDS011;9999;48.780;9.146;2023-03-03T01:20:39;26.50;;;11.70;;
7511;SDS011;9999;48.780;9.146;2023-03-03T01:23:06;20.47;;;9.90;;
7511;SDS011;9999;48.780;9.146;2023-03-03T01:25:33;22.33;;;10.80;;
7511;SDS011;9999;48.780;9.146;2023-03-03T01:28:02;24.97;;;11.13;;
7511;SDS011;9999;48.780;9.146;2023-03-03T01:30:29;20.10;;;10.47;;
7511;SDS011;9999;48.780;9.146;2023-03-03T01:32:56;21.37;;;10.87;;
7511;SDS011;9999;48.780;9.146;2023-03-03T01:35:23;23.50;;;11.10;;
7511;SDS011;9999;48.780;9.146;2023-03-03T01:37:50;20.17;;;10.97;;
7511;SDS011;9999;48.780;9.146;2023-03-03T01:40:18;19.60;;;10.60;;
7511;SDS011;9999;48.780;9.146;2023-03-03T01:42:47;20.53;;;10.87;;
7511;SDS011;9999;48.780;9.146;2023-03-03T01:45:16;24.20;;;12.13;;
7511;SDS011;9999;48.780;9.146;2023-03-03T01:47:46;26.30;;;10.63;;
7511;SDS011;9999;48.780;9.146;2023-03-03T01:50:19;22.17;;;10.20;;
7511;SDS011;9999;48.780;9.146;2023-03-03T01:52:56;16.37;;;8.97;;
7511;SDS011;9999;48.780;9.146;2023-03-03T01:55:25;26.40;;;11.60;;
7511;SDS011;9999;48.780;9.146;2023-03-03T01:57:58;21.10;;;10.77;;
7511;SDS011;9999;48.780;9.146;2023-03-03T02:00:29;27.57;;;11.60;;
7511;SDS011;9999;48.780;9.146;2023-03-03T02:02:57;26.27;;;11.80;;
7511;SDS011;9999;48.780;9.146;2023-03-03T02:05:24;31.30;;;11.93;;
7511;SDS011;9999;48.780;9.146;2023-03-03T02:07:51;20.87;;;10.23;;
7511;SDS011;9999;48.780;9.146;2023-03-03T02:10:18;25.77;;;10.70;;
7511;SDS011;9999;48.780;9.146;2023-03-03T02:12:47;22.00;;;10.37;;
7511;SDS011;9999;48.780;9.146;2023-03-03T02:15:19;24.90;;;11.87;;
7511;SDS011;9999;48.780;9.146;2023-03-03T02:17:48;22.83;;;10.90;;
7511;SDS011;9999;48.780;9.146;2023-03-03T02:20:20;20.73;;;11.57;;
7511;SDS011;9999;48.780;9.146;2023-03-03T02:22:58;25.67;;;11.17;;
7511;SDS011;9999;48.780;9.146;2023-03-03T02:25:32;27.27;;;11.53;;
7511;SDS011;9999;48.780;9.146;2023-03-03T02:28:07;21.83;;;9.63;;
7511;SDS011;9999;48.780;9.146;2023-03-03T02:30:36;22.80;;;11.07;;
7511;SDS011;9999;48.780;9.146;2023-03-03T02:33:04;22.33;;;10.23;;
7511;SDS011;9999;48.780;9.146;2023-03-03T02:35:32;28.80;;;11.80;;
7511;SDS011;9999;48.780;9.146;2023-03-03T02:38:02;26.47;;;12.20;;
7511;SDS011;9999;48.780;9.146;2023-03-03T02:40:37;18.67;;;11.37;;
7511;SDS011;9999;48.780;9.146;2023-03-03T02:43:10;18.97;;;10.03;;
7511;SDS011;9999;48.780;9.146;2023-03-03T02:45:41;23.97;;;12.53;;
7511;SDS011;9999;48.780;9.146;2023-03-03T02:48:09;29.10;;;13.17;;
7511;SDS011;9999;48.780;9.146;2023-03-03T02:50:36;33.37;;;13.27;;
7511;SDS011;9999;48.780;9.146;2023-03-03T02:53:03;26.57;;;13.37;;
7511;SDS011;9999;48.780;9.146;2023-03-03T02:55:30;23.80;;;11.50;;
7511;SDS011;9999;48.780;9.146;2023-03-03T02:57:57;23.63;;;12.00;;
7511;SDS011;9999;48.780;9.146;2023-03-03T03:00:25;22.93;;;11.80;;
7511;SDS011;9999;48.780;9.146;2023-03-03T03:02:52;20.13;;;10.30;;
7511;SDS011;9999;48.780;9.146;2023-03-03T03:05:21;25.63;;;12.57;;
7511;SDS011;9999;48.780;9.146;2023-03-03T03:07:47;24.27;;;11.33;;
7511;SDS011;9999;48.780;9.146;2023-03-03T03:10:15;28.20;;;12.53;;
7511;SDS011;9999;48.780;9.146;2023-03-03T03:12:42;24.10;;;11.57;;
7511;SDS011;9999;48.780;9.146;2023-03-03T03:15:10;25.70;;;10.73;;
7511;SDS011;9999;48.780;9.146;2023-03-03T03:17:38;25.17;;;12.47;;
7511;SDS011;9999;48.780;9.146;2023-03-03T03:20:05;21.80;;;11.23;;
7511;SDS011;9999;48.780;9.146;2023-03-03T03:22:33;21.87;;;10.90;;
7511;SDS011;9999;48.780;9.146;2023-03-03T03:25:00;19.70;;;10.43;;
7511;SDS011;9999;48.780;9.146;2023-03-03T03:27:27;28.23;;;12.37;;
7511;SDS011;9999;48.780;9.146;2023-03-03T03:29:54;24.93;;;11.27;;
7511;SDS011;9999;48.780;9.146;2023-03-03T03:32:22;26.90;;;12.20;;
7511;SDS011;9999;48.780;9.146;2023-03-03T03:34:50;29.10;;;12.53;;
7511;SDS011;9999;48.780;9.146;2023-03-03T03:37:18;23.60;;;10.50;;
7511;SDS011;9999;48.780;9.146;2023-03-03T03:39:45;23.90;;;10.83;;
7511;SDS011;9999;48.780;9.146;2023-03-03T03:42:12;23.13;;;10.87;;
7511;SDS011;9999;48.780;9.146;2023-03-03T03:44:40;23.70;;;11.77;;
7511;SDS011;9999;48.780;9.146;2023-03-03T03:47:06;31.13;;;12.30;;
7511;SDS011;9999;48.780;9.146;2023-03-03T03:49:34;28.37;;;14.13;;
7511;SDS011;9999;48.780;9.146;2023-03-03T03:52:03;28.93;;;13.80;;
7511;SDS011;9999;48.780;9.146;2023-03-03T03:54:32;34.30;;;13.90;;
7511;SDS011;9999;48.780;9.146;2023-03-03T03:56:59;27.63;;;12.73;;
7511;SDS011;9999;48.780;9.146;2023-03-03T03:59:27;27.53;;;13.40;;
7511;SDS011;9999;48.780;9.146;2023-03-03T04:01:55;24.33;;;12.03;;
7511;SDS011;9999;48.780;9.146;2023-03-03T04:04:23;32.00;;;13.17;;
7511;SDS011;9999;48.780;9.146;2023-03-03T04:06:50;25.90;;;11.87;;
7511;SDS011;9999;48.780;9.146;2023-03-03T04:09:19;29.40;;;12.43;;
7511;SDS011;9999;48.780;9.146;2023-03-03T04:11:46;26.80;;;13.23;;
7511;SDS011;9999;48.780;9.146;2023-03-03T04:14:14;25.03;;;12.60;;
7511;SDS011;9999;48.780;9.146;2023-03-03T04:16:41;27.73;;;12.83;;
7511;SDS011;9999;48.780;9.146;2023-03-03T04:19:08;37.20;;;13.97;;
7511;SDS011;9999;48.780;9.146;2023-03-03T04:21:37;28.27;;;13.03;;
7511;SDS011;9999;48.780;9.146;2023-03-03T04:24:04;27.33;;;14.10;;
7511;SDS011;9999;48.780;9.146;2023-03-03T04:26:34;29.17;;;14.03;;
7511;SDS011;9999;48.780;9.146;2023-03-03T04:29:02;26.67;;;12.30;;
7511;SDS011;9999;48.780;9.146;2023-03-03T04:31:29;26.43;;;12.03;;
7511;SDS011;9999;48.780;9.146;2023-03-03T04:33:56;30.97;;;14.03;;
7511;SDS011;9999;48.780;9.146;2023-03-03T04:36:24;32.23;;;12.60;;
7511;SDS011;9999;48.780;9.146;2023-03-03T04:38:51;28.17;;;13.03;;
7511;SDS011;9999;48.780;9.146;2023-03-03T04:41:18;31.63;;;13.67;;
7511;SDS011;9999;48.780;9.146;2023-03-03T04:43:46;38.40;;;13.50;;
7511;SDS011;9999;48.780;9.146;2023-03-03T04:46:13;25.50;;;12.83;;
7511;SDS011;9999;48.780;9.146;2023-03-03T04:48:41;29.17;;;11.90;;
7511;SDS011;9999;48.780;9.146;2023-03-03T04:51:09;31.17;;;13.70;;
7511;SDS011;9999;48.780;9.146;2023-03-03T04:53:40;27.00;;;12.13;;
7511;SDS011;9999;48.780;9.146;2023-03-03T04:56:08;28.23;;;12.33;;
7511;SDS011;9999;48.780;9.146;2023-03-03T04:58:35;22.90;;;11.10;;
7511;SDS011;9999;48.780;9.146;2023-03-03T05:01:04;30.87;;;13.87;;
7511;SDS011;9999;48.780;9.146;2023-03-03T05:03:32;28.13;;;14.67;;
7511;SDS011;9999;48.780;9.146;2023-03-03T05:05:59;24.97;;;13.13;;
7511;SDS011;9999;48.780;9.146;2023-03-03T05:08:26;25.67;;;14.37;;
7511;SDS011;9999;48.780;9.146;2023-03-03T05:10:53;28.63;;;13.67;;
7511;SDS011;9999;48.780;9.146;2023-03-03T05:13:20;27.23;;;12.83;;
7511;SDS011;9999;48.780;9.146;2023-03-03T05:15:50;36.17;;;13.23;;
7511;SDS011;9999;48.780;9.146;2023-03-03T05:18:20;25.83;;;11.40;;
7511;SDS011;9999;48.780;9.146;2023-03-03T05:20:48;27.43;;;12.63;;
7511;SDS011;9999;48.780;9.146;2023-03-03T05:23:16;30.23;;;12.43;;
7511;SDS011;9999;48.780;9.146;2023-03-03T05:25:43;26.80;;;12.07;;
7511;SDS011;9999;48.780;9.146;2023-03-03T05:28:10;27.03;;;12.43;;
7511;SDS011;9999;48.780;9.146;2023-03-03T05:30:37;23.90;;;12.40;;
7511;SDS011;9999;48.780;9.146;2023-03-03T05:33:04;30.83;;;13.43;;
7511;SDS011;9999;48.780;9.146;2023-03-03T05:35:33;29.67;;;13.00;;
7511;SDS011;9999;48.780;9.146;2023-03-03T05:38:00;29.63;;;12.57;;
7511;SDS011;9999;48.780;9.146;2023-03-03T05:40:28;25.47;;;13.50;;
7511;SDS011;9999;48.780;9.146;2023-03-03T05:42:55;28.43;;;13.10;;
7511;SDS011;9999;48.780;9.146;2023-03-03T05:45:22;33.37;;;14.53;;
7511;SDS011;9999;48.780;9.146;2023-03-03T05:47:49;29.67;;;12.80;;
7511;SDS011;9999;48.780;9.146;2023-03-03T05:50:19;24.33;;;12.83;;
7511;SDS011;9999;48.780;9.146;2023-03-03T05:52:48;27.03;;;12.07;;
7511;SDS011;9999;48.780;9.146;2023-03-03T05:55:15;29.93;;;12.17;;
7511;SDS011;9999;48.780;9.146;2023-03-03T05:57:42;30.80;;;14.50;;
7511;SDS011;9999;48.780;9.146;2023-03-03T06:00:09;27.43;;;12.73;;
7511;SDS011;9999;48.780;9.146;2023-03-03T06:02:37;20.83;;;10.40;;
7511;SDS011;9999;48.780;9.146;2023-03-03T06:05:04;27.40;;;10.17;;
7511;SDS011;9999;48.780;9.146;2023-03-03T06:07:31;27.03;;;11.83;;
7511;SDS011;9999;48.780;9.146;2023-03-03T06:09:59;30.03;;;13.63;;
7511;SDS011;9999;48.780;9.146;2023-03-03T06:12:29;28.90;;;12.03;;
7511;SDS011;9999;48.780;9.146;2023-03-03T06:14:56;29.83;;;12.23;;
7511;SDS011;9999;48.780;9.146;2023-03-03T06:17:23;29.00;;;13.07;;
7511;SDS011;9999;48.780;9.146;2023-03-03T06:19:49;22.97;;;11.83;;
7511;SDS011;9999;48.780;9.146;2023-03-03T06:22:16;29.97;;;12.23;;
7511;SDS011;9999;48.780;9.146;2023-03-03T06:24:43;27.93;;;12.60;;
7511;SDS011;9999;48.780;9.146;2023-03-03T06:27:11;24.97;;;10.80;;
7511;SDS011;9999;48.780;9.146;2023-03-03T06:29:38;28.37;;;11.53;;
7511;SDS011;9999;48.780;9.146;2023-03-03T06:32:05;19.73;;;11.13;;
7511;SDS011;9999;48.780;9.146;2023-03-03T06:34:31;22.17;;;10.13;;
7511;SDS011;9999;48.780;9.146;2023-03-03T06:36:58;23.90;;;11.97;;
7511;SDS011;9999;48.780;9.146;2023-03-03T06:39:25;23.80;;;12.50;;
7511;SDS011;9999;48.780;9.146;2023-03-03T06:41:52;25.93;;;11.83;;
7511;SDS011;9999;48.780;9.146;2023-03-03T06:44:20;23.63;;;11.50;;
7511;SDS011;9999;48.780;9.146;2023-03-03T06:46:47;23.90;;;11.40;;
7511;SDS011;9999;48.780;9.146;2023-03-03T06:49:14;19.03;;;9.73;;
7511;SDS011;9999;48.780;9.146;2023-03-03T06:51:40;22.93;;;11.77;;
7511;SDS011;9999;48.780;9.146;2023-03-03T06:54:10;24.00;;;12.40;;
7511;SDS011;9999;48.780;9.146;2023-03-03T06:56:38;31.50;;;14.40;;
7511;SDS011;9999;48.780;9.146;2023-03-03T06:59:05;25.27;;;11.03;;
7511;SDS011;9999;48.780;9.146;2023-03-03T07:01:38;26.40;;;10.60;;
7511;SDS011;9999;48.780;9.146;2023-03-03T07:04:09;21.47;;;10.97;;
7511;SDS011;9999;48.780;9.146;2023-03-03T07:06:41;27.43;;;12.53;;
7511;SDS011;9999;48.780;9.146;2023-03-03T07:09:09;24.33;;;12.13;;
7511;SDS011;9999;48.780;9.146;2023-03-03T07:11:44;19.97;;;9.27;;
7511;SDS011;9999;48.780;9.146;2023-03-03T07:14:13;23.53;;;11.80;;
7511;SDS011;9999;48.780;9.146;2023-03-03T07:16:44;20.77;;;9.67;;
7511;SDS011;9999;48.780;9.146;2023-03-03T07:19:16;27.87;;;11.33;;
7511;SDS011;9999;48.780;9.146;2023-03-03T07:21:45;21.87;;;10.30;;
7511;SDS011;9999;48.780;9.146;2023-03-03T07:24:25;24.27;;;10.43;;
7511;SDS011;9999;48.780;9.146;2023-03-03T07:26:54;24.97;;;9.77;;
7511;SDS011;9999;48.780;9.146;2023-03-03T07:29:26;22.03;;;9.97;;
7511;SDS011;9999;48.780;9.146;2023-03-03T07:31:56;22.87;;;10.83;;
7511;SDS011;9999;48.780;9.146;2023-03-03T07:34:24;28.03;;;10.50;;
7511;SDS011;9999;48.780;9.146;2023-03-03T07:36:56;18.93;;;9.97;;
7511;SDS011;9999;48.780;9.146;2023-03-03T07:39:27;20.10;;;10.87;;
7511;SDS011;9999;48.780;9.146;2023-03-03T07:42:14;24.43;;;11.20;;
7511;SDS011;9999;48.780;9.146;2023-03-03T07:44:52;28.53;;;12.77;;
7511;SDS011;9999;48.780;9.146;2023-03-03T07:47:23;21.57;;;10.07;;
7511;SDS011;9999;48.780;9.146;2023-03-03T07:49:52;29.03;;;12.10;;
7511;SDS011;9999;48.780;9.146;2023-03-03T07:52:23;25.03;;;12.03;;
7511;SDS011;9999;48.780;9.146;2023-03-03T07:54:56;18.87;;;9.20;;
7511;SDS011;9999;48.780;9.146;2023-03-03T07:57:26;21.57;;;10.97;;
7511;SDS011;9999;48.780;9.146;2023-03-03T07:59:59;25.70;;;10.63;;
7511;SDS011;9999;48.780;9.146;2023-03-03T08:02:38;18.37;;;9.23;;
7511;SDS011;9999;48.780;9.146;2023-03-03T08:05:20;23.30;;;10.87;;
7511;SDS011;9999;48.780;9.146;2023-03-03T08:07:56;24.47;;;11.53;;
7511;SDS011;9999;48.780;9.146;2023-03-03T08:10:37;23.17;;;10.13;;
7511;SDS011;9999;48.780;9.146;2023-03-03T08:13:10;24.27;;;10.53;;
7511;SDS011;9999;48.780;9.146;2023-03-03T08:15:42;20.83;;;10.80;;
7511;SDS011;9999;48.780;9.146;2023-03-03T08:21:00;23.87;;;10.63;;
7511;SDS011;9999;48.780;9.146;2023-03-03T08:23:31;20.20;;;10.40;;
7511;SDS011;9999;48.780;9.146;2023-03-03T08:25:58;19.53;;;11.17;;
7511;SDS011;9999;48.780;9.146;2023-03-03T08:28:25;25.73;;;10.30;;
7511;SDS011;9999;48.780;9.146;2023-03-03T08:30:51;16.23;;;8.40;;
7511;SDS011;9999;48.780;9.146;2023-03-03T08:33:18;18.93;;;8.87;;
7511;SDS011;9999;48.780;9.146;2023-03-03T08:35:46;18.13;;;8.40;;
7511;SDS011;9999;48.780;9.146;2023-03-03T08:38:14;19.80;;;10.03;;
7511;SDS011;9999;48.780;9.146;2023-03-03T08:40:43;19.10;;;8.70;;
7511;SDS011;9999;48.780;9.146;2023-03-03T08:43:10;18.63;;;9.43;;
7511;SDS011;9999;48.780;9.146;2023-03-03T08:45:41;17.07;;;9.20;;
7511;SDS011;9999;48.780;9.146;2023-03-03T08:48:07;15.27;;;8.97;;
7511;SDS011;9999;48.780;9.146;2023-03-03T08:50:34;16.30;;;9.10;;
7511;SDS011;9999;48.780;9.146;2023-03-03T08:53:04;13.13;;;7.57;;
7511;SDS011;9999;48.780;9.146;2023-03-03T08:55:31;11.87;;;7.37;;
7511;SDS011;9999;48.780;9.146;2023-03-03T08:57:58;19.87;;;9.93;;
7511;SDS011;9999;48.780;9.146;2023-03-03T09:00:24;14.77;;;8.03;;
7511;SDS011;9999;48.780;9.146;2023-03-03T09:02:51;15.10;;;8.60;;
7511;SDS011;9999;48.780;9.146;2023-03-03T09:05:19;15.43;;;8.40;;
7511;SDS011;9999;48.780;9.146;2023-03-03T09:07:47;19.43;;;9.23;;
7511;SDS011;9999;48.780;9.146;2023-03-03T09:10:18;18.60;;;9.07;;
7511;SDS011;9999;48.780;9.146;2023-03-03T09:12:53;17.63;;;8.43;;
7511;SDS011;9999;48.780;9.146;2023-03-03T09:15:23;15.53;;;9.60;;
7511;SDS011;9999;48.780;9.146;2023-03-03T09:17:51;13.73;;;7.80;;
7511;SDS011;9999;48.780;9.146;2023-03-03T09:20:23;22.50;;;8.97;;
7511;SDS011;9999;48.780;9.146;2023-03-03T09:22:56;15.37;;;8.63;;
7511;SDS011;9999;48.780;9.146;2023-03-03T09:25:29;14.33;;;8.13;;
7511;SDS011;9999;48.780;9.146;2023-03-03T09:27:58;15.30;;;8.77;;
7511;SDS011;9999;48.780;9.146;2023-03-03T09:30:29;15.40;;;8.60;;
7511;SDS011;9999;48.780;9.146;2023-03-03T09:33:01;18.03;;;8.87;;
7511;SDS011;9999;48.780;9.146;2023-03-03T09:35:48;16.20;;;9.23;;
7511;SDS011;9999;48.780;9.146;2023-03-03T09:38:28;18.70;;;9.43;;
7511;SDS011;9999;48.780;9.146;2023-03-03T09:41:05;20.43;;;8.70;;
7511;SDS011;9999;48.780;9.146;2023-03-03T09:43:54;20.00;;;9.33;;
7511;SDS011;9999;48.780;9.146;2023-03-03T09:46:32;21.87;;;11.10;;
7511;SDS011;9999;48.780;9.146;2023-03-03T09:49:06;17.13;;;8.77;;
7511;SDS011;9999;48.780;9.146;2023-03-03T09:51:50;23.37;;;10.03;;
7511;SDS011;9999;48.780;9.146;2023-03-03T09:54:32;26.97;;;9.90;;
7511;SDS011;9999;48.780;9.146;2023-03-03T09:57:19;19.27;;;9.97;;
7511;SDS011;9999;48.780;9.146;2023-03-03T10:00:11;15.57;;;9.80;;
7511;SDS011;9999;48.780;9.146;2023-03-03T10:02:51;23.50;;;11.10;;
7511;SDS011;9999;48.780;9.146;2023-03-03T10:05:38;21.80;;;10.20;;
7511;SDS011;9999;48.780;9.146;2023-03-03T10:08:20;22.70;;;10.83;;
7511;SDS011;9999;48.780;9.146;2023-03-03T10:11:00;17.20;;;10.17;;
7511;SDS011;9999;48.780;9.146;2023-03-03T10:13:42;22.80;;;11.77;;
7511;SDS011;9999;48.780;9.146;2023-03-03T10:16:33;19.27;;;10.87;;
7511;SDS011;9999;48.780;9.146;2023-03-03T10:19:13;21.97;;;11.50;;
7511;SDS011;9999;48.780;9.146;2023-03-03T10:21:54;16.33;;;9.33;;
7511;SDS011;9999;48.780;9.146;2023-03-03T10:24:33;16.63;;;9.00;;
7511;SDS011;9999;48.780;9.146;2023-03-03T10:27:12;17.30;;;10.13;;
7511;SDS011;9999;48.780;9.146;2023-03-03T10:29:54;16.43;;;9.33;;
7511;SDS011;9999;48.780;9.146;2023-03-03T10:38:26;22.70;;;11.73;;
7511;SDS011;9999;48.780;9.146;2023-03-03T10:41:18;16.77;;;9.97;;
7511;SDS011;9999;48.780;9.146;2023-03-03T10:44:03;19.93;;;10.20;;
7511;SDS011;9999;48.780;9.146;2023-03-03T10:47:00;18.47;;;8.47;;
7511;SDS011;9999;48.780;9.146;2023-03-03T10:49:52;21.30;;;10.10;;
7511;SDS011;9999;48.780;9.146;2023-03-03T10:52:30;13.73;;;8.33;;
7511;SDS011;9999;48.780;9.146;2023-03-03T10:55:13;18.50;;;10.47;;
7511;SDS011;9999;48.780;9.146;2023-03-03T10:57:47;22.87;;;11.33;;
7511;SDS011;9999;48.780;9.146;2023-03-03T11:00:21;20.73;;;10.93;;
7511;SDS011;9999;48.780;9.146;2023-03-03T11:02:55;19.87;;;10.40;;
7511;SDS011;9999;48.780;9.146;2023-03-03T11:05:39;21.73;;;9.53;;
7511;SDS011;9999;48.780;9.146;2023-03-03T11:08:10;17.67;;;9.43;;
7511;SDS011;9999;48.780;9.146;2023-03-03T11:10:45;21.23;;;11.63;;
7511;SDS011;9999;48.780;9.146;2023-03-03T11:13:18;17.80;;;9.67;;
7511;SDS011;9999;48.780;9.146;2023-03-03T11:15:54;20.80;;;10.77;;
7511;SDS011;9999;48.780;9.146;2023-03-03T11:18:50;17.47;;;9.77;;
7511;SDS011;9999;48.780;9.146;2023-03-03T11:21:28;16.10;;;9.73;;
7511;SDS011;9999;48.780;9.146;2023-03-03T11:24:22;23.27;;;12.40;;
7511;SDS011;9999;48.780;9.146;2023-03-03T11:27:04;21.03;;;9.60;;
7511;SDS011;9999;48.780;9.146;2023-03-03T11:29:42;20.70;;;10.27;;
7511;SDS011;9999;48.780;9.146;2023-03-03T11:32:19;20.53;;;10.73;;
7511;SDS011;9999;48.780;9.146;2023-03-03T11:34:55;27.77;;;12.03;;
7511;SDS011;9999;48.780;9.146;2023-03-03T11:37:34;21.83;;;10.60;;
7511;SDS011;9999;48.780;9.146;2023-03-03T11:40:09;19.80;;;10.53;;
7511;SDS011;9999;48.780;9.146;2023-03-03T11:42:43;22.40;;;10.97;;
7511;SDS011;9999;48.780;9.146;2023-03-03T11:45:19;24.43;;;10.70;;
7511;SDS011;9999;48.780;9.146;2023-03-03T11:47:52;21.80;;;10.53;;
7511;SDS011;9999;48.780;9.146;2023-03-03T11:50:27;19.80;;;11.43;;
7511;SDS011;9999;48.780;9.146;2023-03-03T11:53:03;20.60;;;10.37;;
7511;SDS011;9999;48.780;9.146;2023-03-03T11:55:51;25.47;;;10.90;;
7511;SDS011;9999;48.780;9.146;2023-03-03T11:58:24;27.03;;;11.77;;
7511;SDS011;9999;48.780;9.146;2023-03-03T12:00:56;19.03;;;9.93;;
7511;SDS011;9999;48.780;9.146;2023-03-03T12:03:28;19.10;;;11.00;;
7511;SDS011;9999;48.780;9.146;2023-03-03T12:06:05;17.17;;;9.70;;
7511;SDS011;9999;48.780;9.146;2023-03-03T12:11:33;20.03;;;9.97;;
7511;SDS011;9999;48.780;9.146;2023-03-03T12:14:12;19.27;;;9.87;;
7511;SDS011;9999;48.780;9.146;2023-03-03T12:16:49;19.17;;;9.97;;
7511;SDS011;9999;48.780;9.146;2023-03-03T12:19:23;17.70;;;9.03;;
7511;SDS011;9999;48.780;9.146;2023-03-03T12:22:06;21.40;;;10.27;;
7511;SDS011;9999;48.780;9.146;2023-03-03T12:24:45;13.97;;;8.83;;
7511;SDS011;9999;48.780;9.146;2023-03-03T12:27:33;19.17;;;9.97;;
7511;SDS011;9999;48.780;9.146;2023-03-03T12:30:10;15.13;;;8.57;;
7511;SDS011;9999;48.780;9.146;2023-03-03T12:32:55;15.30;;;8.93;;
7511;SDS011;9999;48.780;9.146;2023-03-03T12:35:33;15.37;;;9.17;;
7511;SDS011;9999;48.780;9.146;2023-03-03T12:38:12;18.37;;;10.50;;
7511;SDS011;9999;48.780;9.146;2023-03-03T12:40:49;16.57;;;9.90;;
7511;SDS011;9999;48.780;9.146;2023-03-03T12:43:27;17.57;;;9.67;;
7511;SDS011;9999;48.780;9.146;2023-03-03T12:46:10;21.53;;;9.63;;
7511;SDS011;9999;48.780;9.146;2023-03-03T12:48:45;19.63;;;9.60;;
7511;SDS011;9999;48.780;9.146;2023-03-03T12:51:15;21.77;;;10.30;;
7511;SDS011;9999;48.780;9.146;2023-03-03T12:54:09;20.60;;;10.80;;
7511;SDS011;9999;48.780;9.146;2023-03-03T12:56:47;19.50;;;10.63;;
7511;SDS011;9999;48.780;9.146;2023-03-03T12:59:19;23.37;;;10.13;;
7511;SDS011;9999;48.780;9.146;2023-03-03T13:04:45;20.23;;;9.90;;
7511;SDS011;9999;48.780;9.146;2023-03-03T13:07:22;15.43;;;8.97;;
7511;SDS011;9999;48.780;9.146;2023-03-03T13:10:07;18.43;;;9.93;;
7511;SDS011;9999;48.780;9.146;2023-03-03T13:12:42;20.27;;;9.37;;
7511;SDS011;9999;48.780;9.146;2023-03-03T13:15:14;14.43;;;8.40;;
7511;SDS011;9999;48.780;9.146;2023-03-03T13:17:45;17.33;;;9.20;;
7511;SDS011;9999;48.780;9.146;2023-03-03T13:20:21;16.83;;;10.40;;
7511;SDS011;9999;48.780;9.146;2023-03-03T13:22:57;22.52;;;9.82;;
7511;SDS011;9999;48.780;9.146;2023-03-03T13:25:37;21.23;;;9.70;;
7511;SDS011;9999;48.780;9.146;2023-03-03T13:28:15;18.08;;;9.93;;
7511;SDS011;9999;48.780;9.146;2023-03-03T13:30:48;22.63;;;10.03;;
7511;SDS011;9999;48.780;9.146;2023-03-03T13:33:20;19.90;;;9.57;;
7511;SDS011;9999;48.780;9.146;2023-03-03T13:35:52;21.80;;;8.90;;
7511;SDS011;9999;48.780;9.146;2023-03-03T13:38:23;24.65;;;10.23;;
7511;SDS011;9999;48.780;9.146;2023-03-03T13:40:56;21.38;;;9.35;;
7511;SDS011;9999;48.780;9.146;2023-03-03T13:43:29;20.63;;;10.83;;
7511;SDS011;9999;48.780;9.146;2023-03-03T13:46:04;16.05;;;8.82;;
7511;SDS011;9999;48.780;9.146;2023-03-03T13:51:40;17.60;;;8.43;;
7511;SDS011;9999;48.780;9.146;2023-03-03T13:54:15;15.32;;;9.68;;
7511;SDS011;9999;48.780;9.146;2023-03-03T13:56:57;20.63;;;9.70;;
7511;SDS011;9999;48.780;9.146;2023-03-03T13:59:47;22.60;;;10.23;;
7511;SDS011;9999;48.780;9.146;2023-03-03T14:02:30;23.60;;;11.48;;
7511;SDS011;9999;48.780;9.146;2023-03-03T14:05:32;22.48;;;10.20;;
7511;SDS011;9999;48.780;9.146;2023-03-03T14:08:05;19.43;;;10.43;;
7511;SDS011;9999;48.780;9.146;2023-03-03T14:10:39;16.45;;;9.90;;
7511;SDS011;9999;48.780;9.146;2023-03-03T14:13:11;17.70;;;9.10;;
7511;SDS011;9999;48.780;9.146;2023-03-03T14:15:47;20.88;;;10.80;;
7511;SDS011;9999;48.780;9.146;2023-03-03T14:18:23;18.98;;;9.63;;
7511;SDS011;9999;48.780;9.146;2023-03-03T14:20:55;16.58;;;9.93;;
7511;SDS011;9999;48.780;9.146;2023-03-03T14:23:29;19.30;;;11.07;;
7511;SDS011;9999;48.780;9.146;2023-03-03T14:26:06;19.98;;;10.23;;
7511;SDS011;9999;48.780;9.146;2023-03-03T14:28:39;17.75;;;9.85;;
7511;SDS011;9999;48.780;9.146;2023-03-03T14:31:13;15.70;;;8.75;;
7511;SDS011;9999;48.780;9.146;2023-03-03T14:33:44;24.27;;;9.43;;
7511;SDS011;9999;48.780;9.146;2023-03-03T14:36:24;20.60;;;9.40;;
7511;SDS011;9999;48.780;9.146;2023-03-03T14:38:53;20.80;;;9.30;;
7511;SDS011;9999;48.780;9.146;2023-03-03T14:41:21;18.08;;;9.60;;
7511;SDS011;9999;48.780;9.146;2023-03-03T14:44:06;20.08;;;10.55;;
7511;SDS011;9999;48.780;9.146;2023-03-03T14:47:02;24.38;;;10.15;;
7511;SDS011;9999;48.780;9.146;2023-03-03T14:49:38;18.10;;;10.30;;
7511;SDS011;9999;48.780;9.146;2023-03-03T14:52:10;23.40;;;10.70;;
7511;SDS011;9999;48.780;9.146;2023-03-03T14:54:45;22.92;;;10.20;;
7511;SDS011;9999;48.780;9.146;2023-03-03T14:57:14;16.73;;;9.32;;
7511;SDS011;9999;48.780;9.146;2023-03-03T14:59:55;24.25;;;10.05;;
7511;SDS011;9999;48.780;9.146;2023-03-03T15:02:28;24.80;;;11.27;;
7511;SDS011;9999;48.780;9.146;2023-03-03T15:07:45;24.48;;;10.25;;
7511;SDS011;9999;48.780;9.146;2023-03-03T15:10:14;20.13;;;10.20;;
7511;SDS011;9999;48.780;9.146;2023-03-03T15:12:52;17.33;;;8.80;;
7511;SDS011;9999;48.780;9.146;2023-03-03T15:15:21;23.63;;;10.95;;
7511;SDS011;9999;48.780;9.146;2023-03-03T15:17:57;24.13;;;10.90;;
7511;SDS011;9999;48.780;9.146;2023-03-03T15:20:31;21.40;;;10.30;;
7511;SDS011;9999;48.780;9.146;2023-03-03T15:23:22;19.63;;;10.23;;
7511;SDS011;9999;48.780;9.146;2023-03-03T15:26:01;22.13;;;10.17;;
7511;SDS011;9999;48.780;9.146;2023-03-03T15:28:37;22.37;;;10.33;;
7511;SDS011;9999;48.780;9.146;2023-03-03T15:31:15;22.17;;;11.00;;
7511;SDS011;9999;48.780;9.146;2023-03-03T15:33:51;20.63;;;11.17;;
7511;SDS011;9999;48.780;9.146;2023-03-03T15:36:27;20.93;;;10.50;;
7511;SDS011;9999;48.780;9.146;2023-03-03T15:39:02;18.13;;;10.30;;
7511;SDS011;9999;48.780;9.146;2023-03-03T15:41:39;18.60;;;10.43;;